Share

Perham, MN

SE Perham (KMNPERHA3) Elev 1365 ft | 46.59 °N, 95.57 °W | Change Station

Current weather conditions updated 7 minutes ago

Clear
Clear
37.0 °F
Feels Like 37 °F
N
0.0
Wind Variable Wind from ENE
Gusts 2.2 mph
Sunrise 6:26 AM
Sunset 8:17 PM
Moon Waning Gibbous

Today is forecast to be Warmer than yesterday.

Pressure 30.05 in
Visibility 10.0 miles
Clouds Clear
Windchill 37 °F
Dew Point 31 °F
Humidity 78%
Rainfall 0.00 in
Snow Depth Not available.
UV 1 out of 16
Pollen 10.70 out of 12
Air Quality Not available.
Flu Activity Sporadic
METAR KDTL 201255Z AUTO 14004KT 10SM CLR 04/02 A3005 RMK AO2 LTG DSNT S

More Conditions Fewer Conditions

Pressure 30.05 in
Visibility 10.0 miles
Clouds Clear
Windchill 37 °F
Dew Point 31 °F
Humidity 78%
Rainfall 0.00 in
Snow Depth Not available.
UV 1 out of 16
Pollen 10.70 out of 12
Air Quality Not available.
Flu Activity Sporadic
METAR KDTL 201255Z AUTO 14004KT 10SM CLR 04/02 A3005 RMK AO2 LTG DSNT S

More Conditions Fewer Conditions

10-Day Weather Forecast

Almanac

Astronomy

Apr. 20, 2014 Rise Set
Actual Time 6:26 AM CDT 8:17 PM CDT
Civil Twilight 5:53 AM CDT 8:49 PM CDT
Nautical Twilight 5:14 AM CDT 9:29 PM CDT
Astronomical Twilight 4:31 AM CDT 10:12 PM CDT
Moon 1:05 AM CDT 10:40 AM CDT
Length of Visible Light 14h 55m
Length of Day
13h 51m
Tomorrow will be 3m 6s longer.
Waning Gibbous, 70% of the Moon is Illuminated
Today
Waning Gibbous
Apr 22
Last Quarter
Apr 29
New
May 6
First Quarter
May 14
Full

Today's Extremes

State Highs State Lows

Community

  • EARLY FOGGY MORNING
    EARLY FOGGY MORNING
  • Easter Greetings
    Easter Greetings
  • Sunny day at the coast-Cape Arago Lighthouse
    Sunny day at the coast-Cape Arago Lighthouse
  • Cherry Blossoms
    Cherry Blossoms
  • White-Crowned Sparrow
    White-Crowned Sparrow

WunderPhotos

Upload Photos

1,703,195 photos uploaded!

Nearby

Snow Depth

Station Depth Elevation
No new snow has been reported.

Coastal Water Temperatures

Place Temperature
No Stations Reporting

Earthquake Activity

City Distance Mag. Time & Date
No recent earthquake activity has been reported nearby.
Minimum magnitude displayed is 2.5.

Nearby Weather Stations

Station Location Temp. Windchill Dew Point Humidity Wind Precip. Elev Updated Type
SE Perham, Perham, MN 37.0 °F 37 °F 31 °F 78% ENE  at  0.0 mph 0.00 in / hr 1365 ft 8:00 AM CDT Normal
E Side of Big Detroit Lake, Detroit Lakes, MN 39.8 °F 40 °F 36 °F 88% NE  at  0.0 mph 0.00 in / hr 1371 ft 8:05 AM CDT Normal
Pickerel Lake, Detroit Lakes, MN 44.2 °F 44 °F 36 °F 74% SE  at  1.0 mph 0.00 in / hr 1445 ft 8:07 AM CDT Rapid Fire
RAWS DETROIT LAKES MN, Detroit Lakes, MN 32 °F 32 °F 32 °F 98% ESE  at  2 mph 0.00 in / hr 1384 ft 5:20 AM CDT MADIS

Show More Stations Show Fewer Stations

What do you think?

We're not finished. Please let us know what you like, what you don't like, and what you are still missing.